メインページ
METAR-TAF:

METAR-TAF

空港 :

Lytton, ブリティッシュコロンビア州, カナダ

緯度: 50-14N, 経度: 121-35W, 海抜: 229m

現時点の気象観測

当レポートは23分前の18:00(UTC)に作成
の風 18kt、最大28ktの突風を伴う
気温 12°C
湿度 71%
気圧 1012 hPa
視程: 14.5km
高度9500ftの千切れ雲あり

METAR: CWLY 171800Z AUTO 19018G28KT 9SM BKN095 12/07 A2987 RMK SLP118

時間: 10:23 (18:23 UTC)


TAF: 見つかりません

4,000以上の空港の気象観測と天気予報(METAR報とTAF報)

利用可能な観測所は地図上に黄色い丸と赤い丸で示す。

丸の上にカーソルを重ねると観測所名を参照できる。

次にクリックすると気象観測と天気予報を参照できる。

マップの切り替え:黒色「×」印の緑ボタンをクリックして拡大、「-」印の緑ボタンをクリックして縮小、緑色の三角印をクリックして隣りの地図に切り替え


METAR-TAF: